createdAt,value
2018-06-07T00:00:13.328Z,8.50
2018-06-07T00:05:26.090Z,8.77
2018-06-07T00:10:31.293Z,9.20
2018-06-07T00:15:39.380Z,8.50
2018-06-07T00:20:43.270Z,8.67
2018-06-07T00:25:47.257Z,7.50
2018-06-07T00:30:51.111Z,7.23
2018-06-07T00:35:57.476Z,7.73
2018-06-07T00:41:01.672Z,6.60
2018-06-07T00:46:06.225Z,4.30
2018-06-07T00:51:12.633Z,4.30
2018-06-07T00:56:29.030Z,4.43
2018-06-07T01:01:37.493Z,3.97
2018-06-07T01:06:45.345Z,4.23
2018-06-07T01:11:49.485Z,4.37
2018-06-07T01:16:54.205Z,4.07
2018-06-07T01:21:59.520Z,4.20
2018-06-07T01:27:04.836Z,3.80
2018-06-07T01:32:50.333Z,4.03
2018-06-07T01:38:11.151Z,3.90
2018-06-07T01:43:15.846Z,3.77
2018-06-07T01:48:24.977Z,3.27
2018-06-07T01:53:30.718Z,3.70
2018-06-07T01:58:37.419Z,3.83
2018-06-07T02:03:42.857Z,3.73
2018-06-07T02:08:51.688Z,3.70
2018-06-07T02:13:55.468Z,3.50
2018-06-07T02:19:01.501Z,3.80
2018-06-07T02:24:07.650Z,3.97
2018-06-07T02:29:16.152Z,4.03
2018-06-07T02:34:21.468Z,4.03
2018-06-07T02:39:26.626Z,3.97
2018-06-07T02:44:30.809Z,4.50
2018-06-07T02:49:35.245Z,4.07
2018-06-07T02:54:44.857Z,4.67
2018-06-07T02:59:49.056Z,4.30
2018-06-07T03:04:55.432Z,4.53
2018-06-07T03:09:59.922Z,4.87
2018-06-07T03:20:16.122Z,4.73
2018-06-07T03:25:21.739Z,4.67
2018-06-07T03:30:25.986Z,4.87
2018-06-07T03:35:32.312Z,4.70
2018-06-07T03:40:41.375Z,4.90
2018-06-07T03:45:46.529Z,4.47
2018-06-07T03:56:00.586Z,4.23
2018-06-07T04:01:05.348Z,4.00
2018-06-07T04:06:09.217Z,4.10
2018-06-07T04:11:25.643Z,4.60
2018-06-07T04:16:30.184Z,4.40
2018-06-07T04:21:36.022Z,4.40
2018-06-07T04:26:40.420Z,4.20
2018-06-07T04:31:45.402Z,4.13
2018-06-07T04:36:51.599Z,4.10
2018-06-07T04:41:56.243Z,4.27
2018-06-07T04:47:00.989Z,4.20
2018-06-07T04:52:07.372Z,4.30
2018-06-07T04:57:11.656Z,4.23
2018-06-07T05:02:19.014Z,4.00
2018-06-07T05:07:25.009Z,4.13
2018-06-07T05:12:29.226Z,4.37
2018-06-07T05:17:35.771Z,4.67
2018-06-07T05:22:40.100Z,4.67
2018-06-07T05:27:44.386Z,5.20
2018-06-07T05:32:48.733Z,4.37
2018-06-07T05:37:56.320Z,5.17
2018-06-07T05:43:00.719Z,4.63
2018-06-07T05:48:04.990Z,5.30
2018-06-07T05:53:09.292Z,4.97
2018-06-07T05:58:13.865Z,5.17
2018-06-07T06:03:18.264Z,5.40
2018-06-07T06:08:22.652Z,5.30
2018-06-07T06:13:27.192Z,4.97
2018-06-07T06:18:31.601Z,4.63
2018-06-07T06:23:35.448Z,5.33
2018-06-07T06:28:40.190Z,4.97
2018-06-07T06:33:45.595Z,5.10
2018-06-07T06:38:50.691Z,4.80
2018-06-07T06:43:55.382Z,5.43
2018-06-07T06:49:02.368Z,4.60
2018-06-07T06:54:08.263Z,4.77
2018-06-07T06:59:12.652Z,4.97
2018-06-07T07:04:18.931Z,4.40
2018-06-07T07:09:25.976Z,5.50
2018-06-07T07:19:40.224Z,4.87
2018-06-07T07:24:45.613Z,5.00
2018-06-07T07:29:51.470Z,4.13
2018-06-07T07:34:56.766Z,4.30
2018-06-07T07:40:05.162Z,4.60
2018-06-07T07:45:12.026Z,4.90
2018-06-07T07:50:17.329Z,4.67
2018-06-07T07:55:23.726Z,4.60
2018-06-07T08:00:28.675Z,4.33
2018-06-07T08:05:33.405Z,4.37
2018-06-07T08:10:38.237Z,4.47
2018-06-07T08:15:42.580Z,5.37
2018-06-07T08:20:47.593Z,5.00
2018-06-07T08:25:52.623Z,4.53
2018-06-07T08:30:56.393Z,4.53
2018-06-07T08:36:00.021Z,5.00
2018-06-07T08:41:03.746Z,4.53
2018-06-07T08:46:07.393Z,4.80
2018-06-07T08:51:11.151Z,4.07
2018-06-07T08:56:15.563Z,4.50
2018-06-07T09:01:21.296Z,4.60
2018-06-07T09:06:25.908Z,4.17
2018-06-07T09:11:31.323Z,4.50
2018-06-07T09:16:37.064Z,4.30
2018-06-07T09:21:41.328Z,4.50
2018-06-07T09:26:45.787Z,4.90
2018-06-07T09:31:51.319Z,4.97
2018-06-07T09:36:59.581Z,4.60
2018-06-07T09:42:03.999Z,5.73
2018-06-07T09:47:09.477Z,5.93
2018-06-07T09:52:13.752Z,6.00
2018-06-07T09:57:22.257Z,5.90
2018-06-07T10:07:38.376Z,4.10
2018-06-07T10:12:42.290Z,5.50
2018-06-07T10:17:46.575Z,5.23
2018-06-07T10:22:51.423Z,5.83
2018-06-07T10:27:55.875Z,5.27
2018-06-07T10:33:00.133Z,5.10
2018-06-07T10:38:05.342Z,5.93
2018-06-07T10:43:12.780Z,5.43
2018-06-07T10:48:18.729Z,5.80
2018-06-07T10:53:24.397Z,5.70
2018-06-07T10:58:28.991Z,5.23
2018-06-07T11:03:32.670Z,5.83
2018-06-07T11:08:37.518Z,5.90
2018-06-07T11:13:42.126Z,7.00
2018-06-07T11:18:50.458Z,5.07
2018-06-07T11:23:54.353Z,5.30
2018-06-07T11:28:58.282Z,6.13
2018-06-07T11:34:02.107Z,3.87
2018-06-07T11:39:07.204Z,4.47
2018-06-07T11:44:11.446Z,4.40
2018-06-07T11:49:19.332Z,4.00
2018-06-07T11:54:24.813Z,4.13
2018-06-07T11:59:30.891Z,3.40
2018-06-07T12:04:36.238Z,3.00
2018-06-07T12:09:41.804Z,2.97
2018-06-07T12:14:46.242Z,2.97
2018-06-07T12:19:56.135Z,2.97
2018-06-07T12:25:01.461Z,3.10
2018-06-07T12:30:07.502Z,3.47
2018-06-07T12:35:14.515Z,2.40
2018-06-07T12:40:18.506Z,2.60
2018-06-07T12:45:23.751Z,3.00
2018-06-07T12:50:27.776Z,2.53
2018-06-07T12:55:44.631Z,3.20
2018-06-07T13:00:49.425Z,2.80
2018-06-07T13:05:57.543Z,3.00
2018-06-07T13:11:05.858Z,3.17
2018-06-07T13:16:10.191Z,2.93
2018-06-07T13:21:15.202Z,3.70
2018-06-07T13:26:21.072Z,3.80
2018-06-07T13:31:25.277Z,3.40
2018-06-07T13:36:32.926Z,3.10
2018-06-07T13:41:37.631Z,3.23
2018-06-07T13:46:44.590Z,2.40
2018-06-07T13:51:49.307Z,3.70
2018-06-07T13:56:53.368Z,3.10
2018-06-07T14:01:58.779Z,2.90
2018-06-07T14:07:03.640Z,2.50
2018-06-07T14:12:09.778Z,2.70
2018-06-07T14:17:14.433Z,3.30
2018-06-07T14:34:23.184Z,3.10
2018-06-07T14:39:49.332Z,2.40
2018-06-07T14:45:11.424Z,2.63
2018-06-07T14:50:20.351Z,2.43
2018-06-07T14:55:46.220Z,2.33
2018-06-07T15:00:51.599Z,2.93
2018-06-07T15:06:22.531Z,2.87
2018-06-07T15:11:28.263Z,2.53
2018-06-07T15:16:55.105Z,3.17
2018-06-07T15:22:00.325Z,2.60
2018-06-07T15:27:04.720Z,2.47
2018-06-07T15:32:09.396Z,2.77
2018-06-07T15:37:49.684Z,2.60
2018-06-07T15:42:56.139Z,2.87
2018-06-07T15:48:01.131Z,3.00
2018-06-07T15:53:05.619Z,2.83
2018-06-07T15:58:10.470Z,2.83
2018-06-07T16:03:14.374Z,2.87
2018-06-07T16:08:18.279Z,2.93
2018-06-07T16:13:22.559Z,3.10
2018-06-07T16:18:26.257Z,3.03
2018-06-07T16:23:31.453Z,3.27
2018-06-07T16:28:38.850Z,2.73
2018-06-07T16:33:47.785Z,3.00
2018-06-07T16:38:52.943Z,2.80
2018-06-07T16:43:59.732Z,2.57
2018-06-07T16:49:05.264Z,2.80
2018-06-07T16:54:10.412Z,2.77
2018-06-07T16:59:14.507Z,2.80
2018-06-07T17:04:18.760Z,3.13
2018-06-07T17:09:25.600Z,3.03
2018-06-07T17:14:33.548Z,2.93
2018-06-07T17:19:40.022Z,3.20
2018-06-07T17:24:44.967Z,3.33
2018-06-07T17:29:50.618Z,3.33
2018-06-07T17:34:56.328Z,2.67
2018-06-07T17:40:00.776Z,2.80
2018-06-07T17:45:10.386Z,3.20
2018-06-07T17:50:15.431Z,3.30
2018-06-07T17:55:20.699Z,3.03
2018-06-07T18:00:25.307Z,3.17
2018-06-07T18:05:31.692Z,3.40
2018-06-07T18:10:36.333Z,3.10
2018-06-07T18:15:41.327Z,3.57
2018-06-07T18:20:45.799Z,3.50
2018-06-07T18:25:54.224Z,3.33
2018-06-07T18:30:59.062Z,3.77
2018-06-07T18:36:08.181Z,4.30
2018-06-07T18:41:13.721Z,3.20
2018-06-07T18:46:19.251Z,3.70
2018-06-07T18:51:24.594Z,4.03
2018-06-07T18:56:29.269Z,3.40
2018-06-07T19:01:33.680Z,3.70
2018-06-07T19:06:59.186Z,4.07
2018-06-07T19:12:32.975Z,3.40
2018-06-07T19:24:04.492Z,4.07
2018-06-07T19:29:29.290Z,3.97
2018-06-07T19:34:41.186Z,5.00
2018-06-07T19:40:04.360Z,4.30
2018-06-07T19:45:41.519Z,4.10
2018-06-07T19:50:50.721Z,3.90
2018-06-07T19:56:20.399Z,4.80
2018-06-07T20:01:31.327Z,3.50
2018-06-07T20:07:06.532Z,3.80
2018-06-07T20:12:12.495Z,4.30
2018-06-07T20:17:18.351Z,4.10
2018-06-07T20:22:25.123Z,4.20
2018-06-07T20:27:40.816Z,4.93
2018-06-07T20:32:45.729Z,4.47
2018-06-07T20:37:51.868Z,4.93
2018-06-07T20:42:58.916Z,4.10
2018-06-07T20:48:11.198Z,5.00
2018-06-07T20:53:21.066Z,4.87
2018-06-07T20:58:27.641Z,4.33
2018-06-07T21:03:33.404Z,4.70
2018-06-07T21:08:38.769Z,4.47
2018-06-07T21:13:43.224Z,3.90
2018-06-07T21:18:47.340Z,4.37
2018-06-07T21:23:51.232Z,4.10
2018-06-07T21:28:54.883Z,4.13
2018-06-07T21:34:01.125Z,4.60
2018-06-07T21:39:08.906Z,4.80
2018-06-07T21:44:17.182Z,4.77
2018-06-07T21:49:20.962Z,4.60
2018-06-07T21:54:24.927Z,4.10
2018-06-07T21:59:28.563Z,4.20
2018-06-07T22:04:33.312Z,4.70
2018-06-07T22:09:38.119Z,4.47
2018-06-07T22:14:43.855Z,4.43
2018-06-07T22:19:47.426Z,4.47
2018-06-07T22:24:52.012Z,5.00
2018-06-07T22:29:55.703Z,5.00
2018-06-07T22:34:59.522Z,5.00
2018-06-07T22:40:03.410Z,5.03
2018-06-07T22:45:08.032Z,6.03
2018-06-07T22:50:11.634Z,5.90
2018-06-07T22:55:15.230Z,5.30
2018-06-07T23:00:19.188Z,5.13
2018-06-07T23:05:25.252Z,4.30
2018-06-07T23:10:28.799Z,4.50
2018-06-07T23:15:33.531Z,4.70
2018-06-07T23:20:37.141Z,5.17
2018-06-07T23:25:42.053Z,4.67
2018-06-07T23:30:45.953Z,4.33
2018-06-07T23:35:49.961Z,4.30
2018-06-07T23:40:53.769Z,4.30
2018-06-07T23:45:57.686Z,4.80
2018-06-07T23:51:01.703Z,4.70
2018-06-07T23:56:05.452Z,4.20
